createdAt,value
2018-11-21T00:00:12.000Z,99835
2018-11-21T00:01:27.000Z,99834
2018-11-21T00:02:27.000Z,99843
2018-11-21T00:04:12.000Z,99839
2018-11-21T00:05:27.000Z,99835
2018-11-21T00:06:27.000Z,99836
2018-11-21T00:07:27.000Z,99838
2018-11-21T00:09:27.000Z,99832
2018-11-21T00:11:27.000Z,99829
2018-11-21T00:13:27.000Z,99830
2018-11-21T00:15:12.000Z,99825
2018-11-21T00:16:27.000Z,99827
2018-11-21T00:18:27.000Z,99824
2018-11-21T00:19:27.000Z,99833
2018-11-21T00:21:27.000Z,99833
2018-11-21T00:25:13.000Z,99820
2018-11-21T00:27:13.000Z,99822
2018-11-21T00:28:58.000Z,99827
2018-11-21T00:30:13.000Z,99823
2018-11-21T00:31:13.000Z,99830
2018-11-21T00:32:58.000Z,99825
2018-11-21T00:34:13.000Z,99825
2018-11-21T00:36:13.000Z,99835
2018-11-21T00:37:13.000Z,99839
2018-11-21T00:39:13.000Z,99841
2018-11-21T00:41:13.000Z,99840
2018-11-21T00:43:13.000Z,99841
2018-11-21T00:45:13.000Z,99838
2018-11-21T00:47:13.000Z,99843
2018-11-21T00:49:13.000Z,99844
2018-11-21T00:50:43.000Z,99844
2018-11-21T00:52:13.000Z,99854
2018-11-21T00:54:13.000Z,99854
2018-11-21T00:56:13.000Z,99853
2018-11-21T00:57:14.000Z,99850
2018-11-21T00:59:13.000Z,99851
2018-11-21T01:01:13.000Z,99853
2018-11-21T01:02:13.000Z,99852
2018-11-21T01:04:13.000Z,99856
2018-11-21T01:05:13.000Z,99855
2018-11-21T01:07:13.000Z,99862
2018-11-21T01:08:13.000Z,99867
2018-11-21T01:10:13.000Z,99863
2018-11-21T01:11:13.000Z,99864
2018-11-21T01:13:13.000Z,99868
2018-11-21T01:14:43.000Z,99871
2018-11-21T01:16:13.000Z,99870
2018-11-21T01:18:13.000Z,99866
2018-11-21T01:19:13.000Z,99872
2018-11-21T01:21:13.000Z,99874
2018-11-21T01:22:13.000Z,99872
2018-11-21T01:24:13.000Z,99875
2018-11-21T01:26:13.000Z,99874
2018-11-21T01:28:13.000Z,99872
2018-11-21T01:29:58.000Z,99874
2018-11-21T01:32:13.000Z,99878
2018-11-21T01:34:13.000Z,99885
2018-11-21T01:35:13.000Z,99874
2018-11-21T01:36:13.000Z,99873
2018-11-21T01:38:13.000Z,99883
2018-11-21T01:40:13.000Z,99888
2018-11-21T01:41:13.000Z,99891
2018-11-21T01:43:13.000Z,99898
2018-11-21T01:45:13.000Z,99905
2018-11-21T01:46:13.000Z,99903
2018-11-21T01:47:58.000Z,99904
2018-11-21T01:49:13.000Z,99908
2018-11-21T01:50:58.000Z,99915
2018-11-21T01:52:13.000Z,99906
2018-11-21T01:53:13.000Z,99906
2018-11-21T01:55:13.000Z,99906
2018-11-21T01:56:13.000Z,99907
2018-11-21T01:58:13.000Z,99911
2018-11-21T01:59:13.000Z,99910
2018-11-21T02:01:13.000Z,99907
2018-11-21T02:03:13.000Z,99911
2018-11-21T02:05:13.000Z,99906
2018-11-21T02:07:14.000Z,99903
2018-11-21T02:09:14.000Z,99905
2018-11-21T02:10:14.000Z,99907
2018-11-21T02:12:14.000Z,99907
2018-11-21T02:14:14.000Z,99901
2018-11-21T02:16:14.000Z,99897
2018-11-21T02:18:14.000Z,99891
2018-11-21T02:19:14.000Z,99901
2018-11-21T02:20:14.000Z,99900
2018-11-21T02:22:14.000Z,99902
2018-11-21T02:23:14.000Z,99904
2018-11-21T02:24:58.000Z,99907
2018-11-21T02:26:14.000Z,99902
2018-11-21T02:27:14.000Z,99900
2018-11-21T02:29:14.000Z,99899
2018-11-21T02:30:14.000Z,99905
2018-11-21T02:34:14.000Z,99908
2018-11-21T02:36:00.000Z,99912
2018-11-21T02:37:00.000Z,99914
2018-11-21T02:39:00.000Z,99917
2018-11-21T02:40:00.000Z,99919
2018-11-21T02:42:00.000Z,99917
2018-11-21T02:43:00.000Z,99923
2018-11-21T02:45:00.000Z,99914
2018-11-21T02:46:00.000Z,99915
2018-11-21T02:48:00.000Z,99910
2018-11-21T02:50:00.000Z,99916
2018-11-21T02:51:00.000Z,99914
2018-11-21T02:53:00.000Z,99908
2018-11-21T02:55:00.000Z,99912
2018-11-21T02:56:45.000Z,99916
2018-11-21T02:58:00.000Z,99924
2018-11-21T03:00:00.000Z,99930
2018-11-21T03:01:00.000Z,99926
2018-11-21T03:03:00.000Z,99922
2018-11-21T03:04:00.000Z,99926
2018-11-21T03:06:00.000Z,99932
2018-11-21T03:07:00.000Z,99938
2018-11-21T03:09:00.000Z,99947
2018-11-21T03:09:59.000Z,99941
2018-11-21T03:11:59.000Z,99948
2018-11-21T03:13:59.000Z,99948
2018-11-21T03:14:59.000Z,99948
2018-11-21T03:16:59.000Z,99962
2018-11-21T03:18:59.000Z,99959
2018-11-21T03:19:59.000Z,99963
2018-11-21T03:21:44.000Z,99956
2018-11-21T03:22:59.000Z,99951
2018-11-21T03:24:44.000Z,99950
2018-11-21T03:25:59.000Z,99951
2018-11-21T03:26:59.000Z,99943
2018-11-21T03:28:59.000Z,99944
2018-11-21T03:30:59.000Z,99951
2018-11-21T03:32:59.000Z,99962
2018-11-21T03:34:59.000Z,99964
2018-11-21T03:35:59.000Z,99964
2018-11-21T03:37:59.000Z,99967
2018-11-21T03:38:59.000Z,99969
2018-11-21T03:39:59.000Z,99965
2018-11-21T03:41:44.000Z,99967
2018-11-21T03:43:59.000Z,99962
2018-11-21T03:44:59.000Z,99969
2018-11-21T03:46:59.000Z,99980
2018-11-21T03:48:59.000Z,99993
2018-11-21T03:50:59.000Z,100005
2018-11-21T03:52:59.000Z,100018
2018-11-21T03:53:59.000Z,100017
2018-11-21T03:55:59.000Z,100018
2018-11-21T03:57:59.000Z,100022
2018-11-21T03:59:59.000Z,100023
2018-11-21T04:01:59.000Z,100026
2018-11-21T04:03:59.000Z,100021
2018-11-21T04:05:59.000Z,100029
2018-11-21T04:07:59.000Z,100033
2018-11-21T04:09:59.000Z,100030
2018-11-21T04:10:59.000Z,100025
2018-11-21T04:12:59.000Z,100033
2018-11-21T04:15:00.000Z,100032
2018-11-21T04:17:00.000Z,100034
2018-11-21T04:19:00.000Z,100036
2018-11-21T04:20:00.000Z,100036
2018-11-21T04:22:00.000Z,100035
2018-11-21T04:23:45.000Z,100032
2018-11-21T04:25:00.000Z,100036
2018-11-21T04:26:00.000Z,100032
2018-11-21T04:28:00.000Z,100040
2018-11-21T04:30:00.000Z,100042
2018-11-21T04:31:00.000Z,100049
2018-11-21T04:32:29.000Z,100052
2018-11-21T04:34:00.000Z,100049
2018-11-21T04:35:45.000Z,100053
2018-11-21T04:37:00.000Z,100049
2018-11-21T04:38:00.000Z,100045
2018-11-21T04:40:00.000Z,100047
2018-11-21T04:42:00.000Z,100053
2018-11-21T04:43:00.000Z,100056
2018-11-21T04:44:00.000Z,100059
2018-11-21T04:46:00.000Z,100062
2018-11-21T04:48:00.000Z,100060
2018-11-21T04:49:00.000Z,100064
2018-11-21T04:50:45.000Z,100065
2018-11-21T04:52:00.000Z,100061
2018-11-21T04:54:00.000Z,100062
2018-11-21T04:56:00.000Z,100066
2018-11-21T04:57:00.000Z,100069
2018-11-21T04:59:00.000Z,100068
2018-11-21T05:00:00.000Z,100071
2018-11-21T05:02:00.000Z,100066
2018-11-21T05:03:00.000Z,100066
2018-11-21T05:04:00.000Z,100071
2018-11-21T05:05:45.000Z,100068
2018-11-21T05:07:00.000Z,100070
2018-11-21T05:09:00.000Z,100067
2018-11-21T05:10:00.000Z,100067
2018-11-21T05:11:00.000Z,100067
2018-11-21T05:13:00.000Z,100069
2018-11-21T05:14:00.000Z,100074
2018-11-21T05:16:00.000Z,100077
2018-11-21T05:17:00.000Z,100077
2018-11-21T05:19:00.000Z,100074
2018-11-21T05:20:44.000Z,100081
2018-11-21T05:22:00.000Z,100081
2018-11-21T05:23:44.000Z,100087
2018-11-21T05:25:00.000Z,100078
2018-11-21T05:27:00.000Z,100084
2018-11-21T05:28:00.000Z,100090
2018-11-21T05:29:00.000Z,100092
2018-11-21T05:30:44.000Z,100092
2018-11-21T05:32:00.000Z,100097
2018-11-21T05:34:00.000Z,100097
2018-11-21T05:36:00.000Z,100110
2018-11-21T05:37:00.000Z,100105
2018-11-21T05:39:00.000Z,100112
2018-11-21T05:41:00.000Z,100109
2018-11-21T05:42:00.000Z,100106
2018-11-21T05:44:00.000Z,100115
2018-11-21T05:45:00.000Z,100105
2018-11-21T05:47:00.000Z,100117
2018-11-21T05:49:00.000Z,100118
2018-11-21T05:50:00.000Z,100123
2018-11-21T05:52:00.000Z,100121
2018-11-21T05:53:00.000Z,100113
2018-11-21T05:54:00.000Z,100108
2018-11-21T05:56:00.000Z,100103
2018-11-21T05:57:44.000Z,100113
2018-11-21T05:59:00.000Z,100118
2018-11-21T06:01:00.000Z,100113
2018-11-21T06:02:00.000Z,100121
2018-11-21T06:03:00.000Z,100118
2018-11-21T06:05:00.000Z,100118
2018-11-21T06:06:00.000Z,100120
2018-11-21T06:08:00.000Z,100125
2018-11-21T06:09:00.000Z,100121
2018-11-21T06:11:00.000Z,100123
2018-11-21T06:12:00.000Z,100120
2018-11-21T06:14:00.000Z,100126
2018-11-21T06:15:00.000Z,100128
2018-11-21T06:17:00.000Z,100129
2018-11-21T06:19:00.000Z,100133
2018-11-21T06:21:00.000Z,100138
2018-11-21T06:23:00.000Z,100133
2018-11-21T06:24:00.000Z,100129
2018-11-21T06:26:00.000Z,100131
2018-11-21T06:27:45.000Z,100130
2018-11-21T06:29:00.000Z,100125
2018-11-21T06:30:29.000Z,100137
2018-11-21T06:32:00.000Z,100136
2018-11-21T06:33:00.000Z,100142
2018-11-21T06:35:00.000Z,100144
2018-11-21T06:37:00.000Z,100149
2018-11-21T06:39:00.000Z,100147
2018-11-21T06:40:00.000Z,100155
2018-11-21T06:42:00.000Z,100156
2018-11-21T06:43:45.000Z,100167
2018-11-21T06:45:00.000Z,100162
2018-11-21T06:46:00.000Z,100167
2018-11-21T06:47:00.000Z,100168
2018-11-21T06:48:00.000Z,100161
2018-11-21T06:50:00.000Z,100170
2018-11-21T06:52:00.000Z,100177
2018-11-21T06:53:00.000Z,100191
2018-11-21T06:55:00.000Z,100183
2018-11-21T06:57:00.000Z,100195
2018-11-21T06:59:00.000Z,100192
2018-11-21T07:01:00.000Z,100197
2018-11-21T07:03:00.000Z,100206
2018-11-21T07:04:00.000Z,100208
2018-11-21T07:06:00.000Z,100211
2018-11-21T07:07:00.000Z,100212
2018-11-21T07:08:00.000Z,100217
2018-11-21T07:09:00.000Z,100221
2018-11-21T07:11:00.000Z,100228
2018-11-21T07:12:00.000Z,100226
2018-11-21T07:14:00.000Z,100227
2018-11-21T07:16:00.000Z,100224
2018-11-21T07:18:00.000Z,100237
2018-11-21T07:19:00.000Z,100223
2018-11-21T07:20:00.000Z,100236
2018-11-21T07:22:00.000Z,100253
2018-11-21T07:24:00.000Z,100252
2018-11-21T07:25:45.000Z,100253
2018-11-21T07:27:00.000Z,100249
2018-11-21T07:29:00.000Z,100247
2018-11-21T07:30:00.000Z,100240
2018-11-21T07:32:00.000Z,100249
2018-11-21T07:34:00.000Z,100261
2018-11-21T07:36:00.000Z,100260
2018-11-21T07:37:00.000Z,100266
2018-11-21T07:39:00.000Z,100260
2018-11-21T07:41:00.000Z,100258
2018-11-21T07:43:00.000Z,100260
2018-11-21T07:44:00.000Z,100266
2018-11-21T07:45:00.000Z,100266
2018-11-21T07:47:00.000Z,100257
2018-11-21T07:48:45.000Z,100258
2018-11-21T07:50:00.000Z,100252
2018-11-21T07:51:00.000Z,100254
2018-11-21T07:53:00.000Z,100254
2018-11-21T07:54:00.000Z,100249
2018-11-21T07:56:00.000Z,100259
2018-11-21T07:58:00.000Z,100268
2018-11-21T08:00:00.000Z,100275
2018-11-21T08:01:45.000Z,100270
2018-11-21T08:04:00.000Z,100273
2018-11-21T08:05:00.000Z,100274
2018-11-21T08:06:00.000Z,100273
2018-11-21T08:08:00.000Z,100278
2018-11-21T08:09:00.000Z,100275
2018-11-21T08:10:00.000Z,100274
2018-11-21T08:12:00.000Z,100270
2018-11-21T08:14:00.000Z,100272
2018-11-21T08:15:00.000Z,100276
2018-11-21T08:17:00.000Z,100276
2018-11-21T08:19:00.000Z,100283
2018-11-21T08:21:00.000Z,100292
2018-11-21T08:23:00.000Z,100304
2018-11-21T08:24:00.000Z,100300
2018-11-21T08:26:00.000Z,100303
2018-11-21T08:28:00.000Z,100303
2018-11-21T08:30:00.000Z,100299
2018-11-21T08:31:00.000Z,100305
2018-11-21T08:33:00.000Z,100308
2018-11-21T08:34:30.000Z,100307
2018-11-21T08:36:00.000Z,100307
2018-11-21T08:37:00.000Z,100311
2018-11-21T08:38:00.000Z,100305
2018-11-21T08:40:00.000Z,100317
2018-11-21T08:42:00.000Z,100310
2018-11-21T08:43:00.000Z,100305
2018-11-21T08:45:00.000Z,100306
2018-11-21T08:46:00.000Z,100308
2018-11-21T08:48:00.000Z,100312
2018-11-21T08:50:00.000Z,100313
2018-11-21T08:51:30.000Z,100309
2018-11-21T08:53:00.000Z,100315
2018-11-21T08:55:00.000Z,100313
2018-11-21T08:56:45.000Z,100311
2018-11-21T08:58:00.000Z,100315
2018-11-21T08:59:45.000Z,100314
2018-11-21T09:00:45.000Z,100319
2018-11-21T09:02:00.000Z,100324
2018-11-21T09:04:00.000Z,100319
2018-11-21T09:06:00.000Z,100329
2018-11-21T09:08:00.000Z,100341
2018-11-21T09:10:00.000Z,100340
2018-11-21T09:12:00.000Z,100334
2018-11-21T09:14:00.000Z,100331
2018-11-21T09:15:45.000Z,100329
2018-11-21T09:16:45.000Z,100337
2018-11-21T09:18:00.000Z,100337
2018-11-21T09:19:00.000Z,100332
2018-11-21T09:21:00.000Z,100331
2018-11-21T09:22:00.000Z,100331
2018-11-21T09:23:00.000Z,100336
2018-11-21T09:25:00.000Z,100336
2018-11-21T09:27:00.000Z,100342
2018-11-21T09:28:00.000Z,100334
2018-11-21T09:30:00.000Z,100347
2018-11-21T09:31:00.000Z,100348
2018-11-21T09:33:00.000Z,100344
2018-11-21T09:34:00.000Z,100349
2018-11-21T09:35:45.000Z,100347
2018-11-21T09:37:00.000Z,100346
2018-11-21T09:39:00.000Z,100344
2018-11-21T09:41:00.000Z,100353
2018-11-21T09:43:00.000Z,100356
2018-11-21T09:44:00.000Z,100353
2018-11-21T09:45:00.000Z,100345
2018-11-21T09:47:00.000Z,100349
2018-11-21T09:49:00.000Z,100346
2018-11-21T09:50:00.000Z,100358
2018-11-21T09:51:00.000Z,100355
2018-11-21T09:53:00.000Z,100357
2018-11-21T09:54:00.000Z,100355
2018-11-21T09:56:00.000Z,100359
2018-11-21T09:57:45.000Z,100366
2018-11-21T09:59:00.000Z,100367
2018-11-21T10:00:00.000Z,100365
2018-11-21T10:01:45.000Z,100366
2018-11-21T10:03:00.000Z,100365
2018-11-21T10:04:00.000Z,100365
2018-11-21T10:05:00.000Z,100359
2018-11-21T10:07:00.000Z,100360
2018-11-21T10:09:00.000Z,100358
2018-11-21T10:10:00.000Z,100364
2018-11-21T10:12:00.000Z,100367
2018-11-21T10:13:00.000Z,100367
2018-11-21T10:14:00.000Z,100372
2018-11-21T10:16:00.000Z,100361
2018-11-21T10:18:00.000Z,100364
2018-11-21T10:19:45.000Z,100372
2018-11-21T10:21:00.000Z,100365
2018-11-21T10:23:00.000Z,100379
2018-11-21T10:24:00.000Z,100386
2018-11-21T10:26:00.000Z,100375
2018-11-21T10:27:45.000Z,100386
2018-11-21T10:29:00.000Z,100391
2018-11-21T10:30:00.000Z,100389
2018-11-21T10:31:45.000Z,100389
2018-11-21T10:33:00.000Z,100391
2018-11-21T10:35:00.000Z,100386
2018-11-21T10:37:00.000Z,100394
2018-11-21T10:38:00.000Z,100391
2018-11-21T10:40:00.000Z,100410
2018-11-21T10:42:00.000Z,100408
2018-11-21T10:43:00.000Z,100404
2018-11-21T10:45:00.000Z,100403
2018-11-21T10:47:00.000Z,100411
2018-11-21T10:48:00.000Z,100408
2018-11-21T10:49:45.000Z,100412
2018-11-21T10:51:00.000Z,100412
2018-11-21T10:53:00.000Z,100407
2018-11-21T10:54:00.000Z,100408
2018-11-21T10:56:00.000Z,100410
2018-11-21T10:58:00.000Z,100409
2018-11-21T11:00:00.000Z,100411
2018-11-21T11:02:00.000Z,100417
2018-11-21T11:04:00.000Z,100418
2018-11-21T11:06:00.000Z,100427
2018-11-21T11:08:00.000Z,100416
2018-11-21T11:09:00.000Z,100418
2018-11-21T11:11:00.000Z,100417
2018-11-21T11:12:00.000Z,100422
2018-11-21T11:13:00.000Z,100411
2018-11-21T11:15:00.000Z,100415
2018-11-21T11:17:00.000Z,100405
2018-11-21T11:19:00.000Z,100404
2018-11-21T11:20:45.000Z,100403
2018-11-21T11:22:00.000Z,100403
2018-11-21T11:24:00.000Z,100397
2018-11-21T11:25:00.000Z,100398
2018-11-21T11:27:00.000Z,100394
2018-11-21T11:29:00.000Z,100388
2018-11-21T11:31:00.000Z,100385
2018-11-21T11:33:00.000Z,100383
2018-11-21T11:35:00.000Z,100379
2018-11-21T11:37:00.000Z,100381
2018-11-21T11:39:00.000Z,100384
2018-11-21T11:40:00.000Z,100382
2018-11-21T11:41:00.000Z,100391
2018-11-21T11:43:00.000Z,100387
2018-11-21T11:44:00.000Z,100391
2018-11-21T11:45:00.000Z,100403
2018-11-21T11:47:00.000Z,100405
2018-11-21T11:48:00.000Z,100398
2018-11-21T11:50:00.000Z,100396
2018-11-21T11:52:00.000Z,100392
2018-11-21T11:54:00.000Z,100396
2018-11-21T11:55:45.000Z,100400
2018-11-21T11:56:45.000Z,100393
2018-11-21T11:58:00.000Z,100391
2018-11-21T11:59:45.000Z,100389
2018-11-21T12:01:00.000Z,100393
2018-11-21T12:02:45.000Z,100393
2018-11-21T12:04:00.000Z,100397
2018-11-21T12:06:00.000Z,100395
2018-11-21T12:08:00.000Z,100393
2018-11-21T12:09:00.000Z,100397
2018-11-21T12:11:00.000Z,100394
2018-11-21T12:13:00.000Z,100399
2018-11-21T12:15:00.000Z,100406
2018-11-21T12:16:00.000Z,100405
2018-11-21T12:18:00.000Z,100401
2018-11-21T12:20:00.000Z,100405
2018-11-21T12:22:00.000Z,100400
2018-11-21T12:23:00.000Z,100401
2018-11-21T12:25:00.000Z,100400
2018-11-21T12:27:00.000Z,100400
2018-11-21T12:29:00.000Z,100399
2018-11-21T12:31:00.000Z,100399
2018-11-21T12:33:00.000Z,100408
2018-11-21T12:34:00.000Z,100407
2018-11-21T12:36:00.000Z,100406
2018-11-21T12:38:00.000Z,100405
2018-11-21T12:39:29.000Z,100410
2018-11-21T12:41:00.000Z,100406
2018-11-21T12:42:30.000Z,100408
2018-11-21T12:44:00.000Z,100405
2018-11-21T12:45:45.000Z,100408
2018-11-21T12:47:00.000Z,100402
2018-11-21T12:48:00.000Z,100398
2018-11-21T12:50:00.000Z,100405
2018-11-21T12:51:45.000Z,100410
2018-11-21T12:53:00.000Z,100413
2018-11-21T12:55:00.000Z,100409
2018-11-21T12:57:00.000Z,100414
2018-11-21T12:59:00.000Z,100400
2018-11-21T13:00:00.000Z,100405
2018-11-21T13:02:00.000Z,100412
2018-11-21T13:03:00.000Z,100408
2018-11-21T13:05:00.000Z,100409
2018-11-21T13:06:00.000Z,100403
2018-11-21T13:07:00.000Z,100407
2018-11-21T13:09:00.000Z,100404
2018-11-21T13:10:00.000Z,100399
2018-11-21T13:11:00.000Z,100399
2018-11-21T13:13:00.000Z,100398
2018-11-21T13:14:00.000Z,100407
2018-11-21T13:15:45.000Z,100403
2018-11-21T13:17:00.000Z,100408
2018-11-21T13:19:00.000Z,100405
2018-11-21T13:21:00.000Z,100397
2018-11-21T13:22:00.000Z,100394
2018-11-21T13:28:34.000Z,100410
2018-11-21T13:30:19.000Z,100412
2018-11-21T13:32:19.000Z,100415
2018-11-21T13:34:19.000Z,100422
2018-11-21T13:35:19.000Z,100426
2018-11-21T13:37:19.000Z,100424
2018-11-21T13:39:19.000Z,100435
2018-11-21T13:41:19.000Z,100429
2018-11-21T13:43:19.000Z,100436
2018-11-21T13:44:19.000Z,100443
2018-11-21T13:46:20.000Z,100445
2018-11-21T13:48:05.000Z,100453
2018-11-21T13:49:20.000Z,100438
2018-11-21T13:51:20.000Z,100432
2018-11-21T13:53:05.000Z,100432
2018-11-21T13:54:20.000Z,100431
2018-11-21T13:56:20.000Z,100436
2018-11-21T13:57:20.000Z,100440
2018-11-21T13:59:20.000Z,100430
2018-11-21T14:01:20.000Z,100428
2018-11-21T14:02:20.000Z,100429
2018-11-21T14:04:20.000Z,100436
2018-11-21T14:06:20.000Z,100426
2018-11-21T14:07:20.000Z,100427
2018-11-21T14:08:20.000Z,100423
2018-11-21T14:09:20.000Z,100424
2018-11-21T14:11:20.000Z,100426
2018-11-21T14:12:20.000Z,100435
2018-11-21T14:14:20.000Z,100426
2018-11-21T14:15:20.000Z,100428
2018-11-21T14:17:20.000Z,100424
2018-11-21T14:19:20.000Z,100428
2018-11-21T14:21:20.000Z,100437
2018-11-21T14:23:20.000Z,100436
2018-11-21T14:25:20.000Z,100436
2018-11-21T14:27:05.000Z,100429
2018-11-21T14:28:20.000Z,100427
2018-11-21T14:29:20.000Z,100426
2018-11-21T14:31:20.000Z,100428
2018-11-21T14:33:05.000Z,100424
2018-11-21T14:34:20.000Z,100427
2018-11-21T14:36:20.000Z,100430
2018-11-21T14:38:20.000Z,100430
2018-11-21T14:40:20.000Z,100430
2018-11-21T14:41:20.000Z,100437
2018-11-21T14:43:20.000Z,100445
2018-11-21T14:45:20.000Z,100446
2018-11-21T14:47:20.000Z,100444
2018-11-21T14:49:20.000Z,100444
2018-11-21T14:50:20.000Z,100444
2018-11-21T14:52:20.000Z,100445
2018-11-21T14:53:20.000Z,100445
2018-11-21T14:55:20.000Z,100452
2018-11-21T14:56:20.000Z,100457
2018-11-21T14:58:20.000Z,100459
2018-11-21T15:00:20.000Z,100454
2018-11-21T15:01:49.000Z,100446
2018-11-21T15:03:20.000Z,100449
2018-11-21T15:05:20.000Z,100460
2018-11-21T15:07:20.000Z,100460
2018-11-21T15:08:20.000Z,100463
2018-11-21T15:10:20.000Z,100471
2018-11-21T15:11:20.000Z,100464
2018-11-21T15:12:20.000Z,100456
2018-11-21T15:14:20.000Z,100454
2018-11-21T15:15:20.000Z,100455
2018-11-21T15:17:20.000Z,100459
2018-11-21T15:19:20.000Z,100464
2018-11-21T15:21:20.000Z,100460
2018-11-21T15:23:20.000Z,100459
2018-11-21T15:24:20.000Z,100457
2018-11-21T15:26:20.000Z,100459
2018-11-21T15:27:20.000Z,100452
2018-11-21T15:28:20.000Z,100453
2018-11-21T15:30:20.000Z,100456
2018-11-21T15:32:20.000Z,100464
2018-11-21T15:34:05.000Z,100467
2018-11-21T15:35:20.000Z,100465
2018-11-21T15:37:20.000Z,100467
2018-11-21T15:38:20.000Z,100471
2018-11-21T15:40:20.000Z,100466
2018-11-21T15:41:20.000Z,100466
2018-11-21T15:43:20.000Z,100468
2018-11-21T15:45:20.000Z,100469
2018-11-21T15:46:20.000Z,100473
2018-11-21T15:48:20.000Z,100481
2018-11-21T15:49:20.000Z,100479
2018-11-21T15:51:20.000Z,100479
2018-11-21T15:53:20.000Z,100484
2018-11-21T15:55:20.000Z,100491
2018-11-21T15:57:04.000Z,100493
2018-11-21T15:58:20.000Z,100486
2018-11-21T16:00:20.000Z,100494
2018-11-21T16:02:20.000Z,100507
2018-11-21T16:04:20.000Z,100504
2018-11-21T16:05:20.000Z,100502
2018-11-21T16:07:04.000Z,100502
2018-11-21T16:08:20.000Z,100504
2018-11-21T16:09:20.000Z,100511
2018-11-21T16:11:20.000Z,100502
2018-11-21T16:12:20.000Z,100502
2018-11-21T16:14:20.000Z,100503
2018-11-21T16:16:20.000Z,100503
2018-11-21T16:18:20.000Z,100508
2018-11-21T16:20:04.000Z,100500
2018-11-21T16:21:20.000Z,100500
2018-11-21T16:23:04.000Z,100503
2018-11-21T16:24:20.000Z,100497
2018-11-21T16:26:04.000Z,100492
2018-11-21T16:27:20.000Z,100490
2018-11-21T16:28:20.000Z,100492
2018-11-21T16:30:20.000Z,100496
2018-11-21T16:32:20.000Z,100500
2018-11-21T16:33:20.000Z,100500
2018-11-21T16:35:20.000Z,100505
2018-11-21T16:36:20.000Z,100505
2018-11-21T16:38:20.000Z,100506
2018-11-21T16:39:20.000Z,100510
2018-11-21T16:41:20.000Z,100507
2018-11-21T16:42:20.000Z,100513
2018-11-21T16:44:20.000Z,100519
2018-11-21T16:46:20.000Z,100518
2018-11-21T16:48:20.000Z,100519
2018-11-21T16:49:20.000Z,100520
2018-11-21T17:27:39.000Z,100551
2018-11-21T17:29:39.000Z,100549
2018-11-21T17:30:39.000Z,100549
2018-11-21T17:32:23.000Z,100548
2018-11-21T17:33:24.000Z,100553
2018-11-21T17:34:39.000Z,100546
2018-11-21T17:36:39.000Z,100550
2018-11-21T17:38:39.000Z,100560
2018-11-21T17:40:39.000Z,100558
2018-11-21T17:42:24.000Z,100558
2018-11-21T17:43:39.000Z,100559
2018-11-21T17:45:39.000Z,100560
2018-11-21T17:46:39.000Z,100573
2018-11-21T17:48:39.000Z,100559
2018-11-21T17:50:39.000Z,100564
2018-11-21T17:51:39.000Z,100561
2018-11-21T17:53:23.000Z,100561
2018-11-21T17:54:23.000Z,100557
2018-11-21T17:55:39.000Z,100557
2018-11-21T17:57:39.000Z,100566
2018-11-21T17:58:39.000Z,100566
2018-11-21T18:00:39.000Z,100569
2018-11-21T18:02:39.000Z,100571
2018-11-21T18:04:39.000Z,100570
2018-11-21T18:05:39.000Z,100579
2018-11-21T18:07:39.000Z,100569
2018-11-21T18:09:39.000Z,100572
2018-11-21T18:11:24.000Z,100576
2018-11-21T18:12:39.000Z,100572
2018-11-21T18:13:39.000Z,100587
2018-11-21T18:15:39.000Z,100590
2018-11-21T18:16:39.000Z,100593
2018-11-21T18:18:39.000Z,100598
2018-11-21T18:20:39.000Z,100589
2018-11-21T18:22:24.000Z,100608
2018-11-21T18:23:39.000Z,100591
2018-11-21T18:24:39.000Z,100592
2018-11-21T18:26:39.000Z,100593
2018-11-21T18:28:24.000Z,100590
2018-11-21T18:29:39.000Z,100594
2018-11-21T18:31:24.000Z,100601
2018-11-21T18:32:39.000Z,100605
2018-11-21T18:33:39.000Z,100606
2018-11-21T18:35:39.000Z,100608
2018-11-21T18:37:39.000Z,100608
2018-11-21T18:39:39.000Z,100606
2018-11-21T18:40:39.000Z,100606
2018-11-21T18:42:39.000Z,100605
2018-11-21T18:43:39.000Z,100606
2018-11-21T18:45:39.000Z,100605
2018-11-21T18:47:39.000Z,100609
2018-11-21T18:49:39.000Z,100606
2018-11-21T18:51:39.000Z,100605
2018-11-21T18:53:39.000Z,100609
2018-11-21T18:55:39.000Z,100616
2018-11-21T18:56:39.000Z,100612
2018-11-21T18:57:39.000Z,100617
2018-11-21T18:59:39.000Z,100614
2018-11-21T19:01:39.000Z,100614
2018-11-21T19:02:39.000Z,100614
2018-11-21T19:04:39.000Z,100618
2018-11-21T19:05:39.000Z,100623
2018-11-21T19:07:23.000Z,100621
2018-11-21T19:08:39.000Z,100618
2018-11-21T19:10:23.000Z,100621
2018-11-21T19:11:39.000Z,100617
2018-11-21T19:13:39.000Z,100615
2018-11-21T19:15:39.000Z,100616
2018-11-21T19:17:39.000Z,100620
2018-11-21T19:19:39.000Z,100617
2018-11-21T19:21:23.000Z,100619
2018-11-21T19:22:39.000Z,100624
2018-11-21T19:24:23.000Z,100625
2018-11-21T19:25:39.000Z,100623
2018-11-21T19:26:39.000Z,100620
2018-11-21T19:28:39.000Z,100621
2018-11-21T19:30:39.000Z,100625
2018-11-21T19:32:39.000Z,100623
2018-11-21T19:34:39.000Z,100627
2018-11-21T19:36:39.000Z,100625
2018-11-21T19:38:39.000Z,100626
2018-11-21T19:39:39.000Z,100628
2018-11-21T19:41:39.000Z,100629
2018-11-21T19:43:39.000Z,100630
2018-11-21T19:45:39.000Z,100630
2018-11-21T19:47:39.000Z,100632
2018-11-21T19:48:39.000Z,100625
2018-11-21T19:50:39.000Z,100636
2018-11-21T19:52:39.000Z,100638
2018-11-21T19:54:39.000Z,100641
2018-11-21T19:56:39.000Z,100637
2018-11-21T19:57:39.000Z,100637
2018-11-21T19:59:23.000Z,100639
2018-11-21T20:00:39.000Z,100638
2018-11-21T20:02:39.000Z,100638
2018-11-21T20:04:39.000Z,100642
2018-11-21T20:06:39.000Z,100639
2018-11-21T20:08:39.000Z,100642
2018-11-21T20:10:39.000Z,100643
2018-11-21T20:11:39.000Z,100643
2018-11-21T20:13:39.000Z,100645
2018-11-21T20:15:39.000Z,100642
2018-11-21T20:17:39.000Z,100636
2018-11-21T20:19:24.000Z,100641
2018-11-21T20:20:39.000Z,100648
2018-11-21T20:22:39.000Z,100649
2018-11-21T20:24:24.000Z,100650
2018-11-21T20:25:39.000Z,100643
2018-11-21T20:26:39.000Z,100651
2018-11-21T20:28:39.000Z,100652
2018-11-21T20:30:39.000Z,100649
2018-11-21T20:31:39.000Z,100648
2018-11-21T20:33:39.000Z,100646
2018-11-21T20:34:39.000Z,100648
2018-11-21T20:36:24.000Z,100648
2018-11-21T20:37:39.000Z,100643
2018-11-21T20:38:39.000Z,100643
2018-11-21T20:40:39.000Z,100641
2018-11-21T20:41:39.000Z,100642
2018-11-21T20:43:39.000Z,100641
2018-11-21T20:45:39.000Z,100640
2018-11-21T20:47:39.000Z,100642
2018-11-21T20:48:39.000Z,100642
2018-11-21T20:49:39.000Z,100647
2018-11-21T20:51:24.000Z,100638
2018-11-21T20:52:39.000Z,100650
2018-11-21T20:54:39.000Z,100655
2018-11-21T20:55:39.000Z,100652
2018-11-21T20:57:39.000Z,100648